sensor_id;sensor_type;location;lat;lon;timestamp;P1;durP1;ratioP1;P2;durP2;ratioP2
22531;SDS011;11432;46.924;7.114;2024-01-15T00:01:47;3.83;;;2.22;;
22531;SDS011;11432;46.924;7.114;2024-01-15T00:04:13;3.47;;;2.05;;
22531;SDS011;11432;46.924;7.114;2024-01-15T00:06:39;5.45;;;2.28;;
22531;SDS011;11432;46.924;7.114;2024-01-15T00:09:04;4.72;;;2.22;;
22531;SDS011;11432;46.924;7.114;2024-01-15T00:11:31;4.07;;;2.45;;
22531;SDS011;11432;46.924;7.114;2024-01-15T00:13:57;4.97;;;2.58;;
22531;SDS011;11432;46.924;7.114;2024-01-15T00:16:23;4.38;;;2.65;;
22531;SDS011;11432;46.924;7.114;2024-01-15T00:18:49;3.95;;;2.15;;
22531;SDS011;11432;46.924;7.114;2024-01-15T00:21:14;4.63;;;2.45;;
22531;SDS011;11432;46.924;7.114;2024-01-15T00:23:43;4.15;;;2.28;;
22531;SDS011;11432;46.924;7.114;2024-01-15T00:26:11;4.05;;;2.10;;
22531;SDS011;11432;46.924;7.114;2024-01-15T00:28:37;3.47;;;1.95;;
22531;SDS011;11432;46.924;7.114;2024-01-15T00:31:06;3.45;;;1.98;;
22531;SDS011;11432;46.924;7.114;2024-01-15T00:33:32;3.83;;;2.22;;
22531;SDS011;11432;46.924;7.114;2024-01-15T00:35:57;3.42;;;1.88;;
22531;SDS011;11432;46.924;7.114;2024-01-15T00:38:23;3.67;;;1.92;;
22531;SDS011;11432;46.924;7.114;2024-01-15T00:40:49;3.60;;;2.17;;
22531;SDS011;11432;46.924;7.114;2024-01-15T00:43:14;3.88;;;2.20;;
22531;SDS011;11432;46.924;7.114;2024-01-15T00:45:43;3.80;;;2.15;;
22531;SDS011;11432;46.924;7.114;2024-01-15T00:48:08;4.10;;;2.08;;
22531;SDS011;11432;46.924;7.114;2024-01-15T00:50:34;4.07;;;2.20;;
22531;SDS011;11432;46.924;7.114;2024-01-15T00:53:00;5.50;;;2.28;;
22531;SDS011;11432;46.924;7.114;2024-01-15T00:55:25;5.85;;;2.63;;
22531;SDS011;11432;46.924;7.114;2024-01-15T00:57:52;5.60;;;2.40;;
22531;SDS011;11432;46.924;7.114;2024-01-15T01:00:17;4.65;;;2.60;;
22531;SDS011;11432;46.924;7.114;2024-01-15T01:02:43;6.93;;;2.78;;
22531;SDS011;11432;46.924;7.114;2024-01-15T01:05:08;4.65;;;2.38;;
22531;SDS011;11432;46.924;7.114;2024-01-15T01:07:34;4.03;;;2.20;;
22531;SDS011;11432;46.924;7.114;2024-01-15T01:10:00;5.55;;;2.53;;
22531;SDS011;11432;46.924;7.114;2024-01-15T01:12:25;4.97;;;2.30;;
22531;SDS011;11432;46.924;7.114;2024-01-15T01:14:51;4.55;;;2.35;;
22531;SDS011;11432;46.924;7.114;2024-01-15T01:17:16;4.72;;;2.40;;
22531;SDS011;11432;46.924;7.114;2024-01-15T01:19:42;3.42;;;1.92;;
22531;SDS011;11432;46.924;7.114;2024-01-15T01:22:08;4.55;;;2.25;;
22531;SDS011;11432;46.924;7.114;2024-01-15T01:24:33;5.78;;;1.90;;
22531;SDS011;11432;46.924;7.114;2024-01-15T01:26:59;5.13;;;1.85;;
22531;SDS011;11432;46.924;7.114;2024-01-15T01:29:24;3.83;;;1.92;;
22531;SDS011;11432;46.924;7.114;2024-01-15T01:31:51;3.45;;;1.60;;
22531;SDS011;11432;46.924;7.114;2024-01-15T01:34:17;3.50;;;1.75;;
22531;SDS011;11432;46.924;7.114;2024-01-15T01:36:43;3.95;;;1.38;;
22531;SDS011;11432;46.924;7.114;2024-01-15T01:39:09;3.47;;;1.55;;
22531;SDS011;11432;46.924;7.114;2024-01-15T01:41:35;4.13;;;1.90;;
22531;SDS011;11432;46.924;7.114;2024-01-15T01:44:00;3.05;;;1.67;;
22531;SDS011;11432;46.924;7.114;2024-01-15T01:46:27;3.35;;;1.60;;
22531;SDS011;11432;46.924;7.114;2024-01-15T01:48:56;3.92;;;1.33;;
22531;SDS011;11432;46.924;7.114;2024-01-15T01:51:22;1.95;;;1.30;;
22531;SDS011;11432;46.924;7.114;2024-01-15T01:53:49;2.17;;;1.33;;
22531;SDS011;11432;46.924;7.114;2024-01-15T01:56:15;2.35;;;1.40;;
22531;SDS011;11432;46.924;7.114;2024-01-15T01:58:42;2.20;;;1.08;;
22531;SDS011;11432;46.924;7.114;2024-01-15T02:01:09;1.92;;;1.15;;
22531;SDS011;11432;46.924;7.114;2024-01-15T02:03:36;1.83;;;1.10;;
22531;SDS011;11432;46.924;7.114;2024-01-15T02:06:03;2.40;;;1.20;;
22531;SDS011;11432;46.924;7.114;2024-01-15T02:08:29;2.25;;;1.20;;
22531;SDS011;11432;46.924;7.114;2024-01-15T02:10:55;2.17;;;1.05;;
22531;SDS011;11432;46.924;7.114;2024-01-15T02:13:20;1.98;;;1.02;;
22531;SDS011;11432;46.924;7.114;2024-01-15T02:15:46;2.15;;;1.13;;
22531;SDS011;11432;46.924;7.114;2024-01-15T02:18:12;2.70;;;1.10;;
22531;SDS011;11432;46.924;7.114;2024-01-15T02:20:37;2.47;;;1.20;;
22531;SDS011;11432;46.924;7.114;2024-01-15T02:23:10;2.08;;;1.00;;
22531;SDS011;11432;46.924;7.114;2024-01-15T02:25:37;2.20;;;1.20;;
22531;SDS011;11432;46.924;7.114;2024-01-15T02:28:11;2.13;;;1.33;;
22531;SDS011;11432;46.924;7.114;2024-01-15T02:30:38;2.22;;;1.35;;
22531;SDS011;11432;46.924;7.114;2024-01-15T02:33:05;2.33;;;1.38;;
22531;SDS011;11432;46.924;7.114;2024-01-15T02:35:31;2.05;;;1.40;;
22531;SDS011;11432;46.924;7.114;2024-01-15T02:37:57;2.63;;;1.20;;
22531;SDS011;11432;46.924;7.114;2024-01-15T02:40:23;3.78;;;1.48;;
22531;SDS011;11432;46.924;7.114;2024-01-15T02:42:49;2.97;;;1.30;;
22531;SDS011;11432;46.924;7.114;2024-01-15T02:45:14;2.00;;;1.17;;
22531;SDS011;11432;46.924;7.114;2024-01-15T02:47:40;2.63;;;1.40;;
22531;SDS011;11432;46.924;7.114;2024-01-15T02:50:06;2.30;;;1.20;;
22531;SDS011;11432;46.924;7.114;2024-01-15T02:52:32;3.13;;;1.60;;
22531;SDS011;11432;46.924;7.114;2024-01-15T02:54:57;3.08;;;1.60;;
22531;SDS011;11432;46.924;7.114;2024-01-15T02:57:23;3.33;;;1.50;;
22531;SDS011;11432;46.924;7.114;2024-01-15T02:59:48;2.67;;;1.30;;
22531;SDS011;11432;46.924;7.114;2024-01-15T03:02:14;2.28;;;1.30;;
22531;SDS011;11432;46.924;7.114;2024-01-15T03:04:43;1.92;;;1.08;;
22531;SDS011;11432;46.924;7.114;2024-01-15T03:07:09;7.10;;;2.90;;
22531;SDS011;11432;46.924;7.114;2024-01-15T03:09:35;4.22;;;2.13;;
22531;SDS011;11432;46.924;7.114;2024-01-15T03:12:00;3.20;;;2.08;;
22531;SDS011;11432;46.924;7.114;2024-01-15T03:14:26;3.90;;;1.80;;
22531;SDS011;11432;46.924;7.114;2024-01-15T03:16:52;3.90;;;1.90;;
22531;SDS011;11432;46.924;7.114;2024-01-15T03:19:18;3.03;;;1.58;;
22531;SDS011;11432;46.924;7.114;2024-01-15T03:21:43;3.50;;;1.63;;
22531;SDS011;11432;46.924;7.114;2024-01-15T03:24:09;3.53;;;1.70;;
22531;SDS011;11432;46.924;7.114;2024-01-15T03:26:34;2.08;;;1.30;;
22531;SDS011;11432;46.924;7.114;2024-01-15T03:29:00;3.67;;;1.80;;
22531;SDS011;11432;46.924;7.114;2024-01-15T03:31:26;3.00;;;1.60;;
22531;SDS011;11432;46.924;7.114;2024-01-15T03:33:51;3.20;;;1.40;;
22531;SDS011;11432;46.924;7.114;2024-01-15T03:36:17;3.30;;;1.48;;
22531;SDS011;11432;46.924;7.114;2024-01-15T03:38:42;3.47;;;1.73;;
22531;SDS011;11432;46.924;7.114;2024-01-15T03:41:08;3.50;;;1.60;;
22531;SDS011;11432;46.924;7.114;2024-01-15T03:43:34;3.88;;;1.77;;
22531;SDS011;11432;46.924;7.114;2024-01-15T03:45:59;4.25;;;1.85;;
22531;SDS011;11432;46.924;7.114;2024-01-15T03:48:25;2.65;;;1.50;;
22531;SDS011;11432;46.924;7.114;2024-01-15T03:50:50;2.72;;;1.70;;
22531;SDS011;11432;46.924;7.114;2024-01-15T03:53:16;4.60;;;1.83;;
22531;SDS011;11432;46.924;7.114;2024-01-15T03:55:42;4.43;;;2.10;;
22531;SDS011;11432;46.924;7.114;2024-01-15T03:58:07;3.50;;;2.00;;
22531;SDS011;11432;46.924;7.114;2024-01-15T04:00:33;3.42;;;1.85;;
22531;SDS011;11432;46.924;7.114;2024-01-15T04:02:59;4.10;;;1.60;;
22531;SDS011;11432;46.924;7.114;2024-01-15T04:05:25;3.20;;;1.90;;
22531;SDS011;11432;46.924;7.114;2024-01-15T04:07:51;3.15;;;1.88;;
22531;SDS011;11432;46.924;7.114;2024-01-15T04:10:16;3.15;;;1.85;;
22531;SDS011;11432;46.924;7.114;2024-01-15T04:12:42;5.18;;;2.00;;
22531;SDS011;11432;46.924;7.114;2024-01-15T04:15:08;5.10;;;2.28;;
22531;SDS011;11432;46.924;7.114;2024-01-15T04:17:33;3.95;;;2.42;;
22531;SDS011;11432;46.924;7.114;2024-01-15T04:19:59;3.92;;;2.22;;
22531;SDS011;11432;46.924;7.114;2024-01-15T04:22:25;3.53;;;2.30;;
22531;SDS011;11432;46.924;7.114;2024-01-15T04:24:51;3.35;;;2.05;;
22531;SDS011;11432;46.924;7.114;2024-01-15T04:27:17;3.33;;;1.85;;
22531;SDS011;11432;46.924;7.114;2024-01-15T04:29:43;4.95;;;2.17;;
22531;SDS011;11432;46.924;7.114;2024-01-15T04:32:09;4.55;;;2.20;;
22531;SDS011;11432;46.924;7.114;2024-01-15T04:34:35;3.10;;;1.85;;
22531;SDS011;11432;46.924;7.114;2024-01-15T04:37:00;3.25;;;1.92;;
22531;SDS011;11432;46.924;7.114;2024-01-15T04:39:26;3.72;;;2.20;;
22531;SDS011;11432;46.924;7.114;2024-01-15T04:41:52;4.00;;;2.13;;
22531;SDS011;11432;46.924;7.114;2024-01-15T04:44:18;3.22;;;2.22;;
22531;SDS011;11432;46.924;7.114;2024-01-15T04:46:43;3.95;;;2.03;;
22531;SDS011;11432;46.924;7.114;2024-01-15T04:49:09;3.17;;;1.98;;
22531;SDS011;11432;46.924;7.114;2024-01-15T04:51:35;3.63;;;2.20;;
22531;SDS011;11432;46.924;7.114;2024-01-15T04:54:01;4.05;;;2.08;;
22531;SDS011;11432;46.924;7.114;2024-01-15T04:56:27;3.05;;;1.75;;
22531;SDS011;11432;46.924;7.114;2024-01-15T04:58:52;3.92;;;1.90;;
22531;SDS011;11432;46.924;7.114;2024-01-15T05:01:18;3.22;;;1.90;;
22531;SDS011;11432;46.924;7.114;2024-01-15T05:03:43;2.67;;;1.50;;
22531;SDS011;11432;46.924;7.114;2024-01-15T05:06:09;3.13;;;1.50;;
22531;SDS011;11432;46.924;7.114;2024-01-15T05:08:35;2.67;;;1.42;;
22531;SDS011;11432;46.924;7.114;2024-01-15T05:11:00;2.90;;;1.60;;
22531;SDS011;11432;46.924;7.114;2024-01-15T05:13:26;2.90;;;1.40;;
22531;SDS011;11432;46.924;7.114;2024-01-15T05:15:52;2.63;;;1.30;;
22531;SDS011;11432;46.924;7.114;2024-01-15T05:18:17;3.22;;;1.40;;
22531;SDS011;11432;46.924;7.114;2024-01-15T05:20:43;2.67;;;1.58;;
22531;SDS011;11432;46.924;7.114;2024-01-15T05:23:08;2.10;;;1.23;;
22531;SDS011;11432;46.924;7.114;2024-01-15T05:25:34;2.20;;;1.25;;
22531;SDS011;11432;46.924;7.114;2024-01-15T05:28:00;1.77;;;1.00;;
22531;SDS011;11432;46.924;7.114;2024-01-15T05:30:26;3.53;;;1.02;;
22531;SDS011;11432;46.924;7.114;2024-01-15T05:32:51;1.38;;;0.85;;
22531;SDS011;11432;46.924;7.114;2024-01-15T05:35:17;2.50;;;0.88;;
22531;SDS011;11432;46.924;7.114;2024-01-15T05:37:43;2.15;;;1.02;;
22531;SDS011;11432;46.924;7.114;2024-01-15T05:40:10;2.03;;;0.90;;
22531;SDS011;11432;46.924;7.114;2024-01-15T05:42:37;0.95;;;0.57;;
22531;SDS011;11432;46.924;7.114;2024-01-15T05:45:04;2.03;;;0.80;;
22531;SDS011;11432;46.924;7.114;2024-01-15T05:47:30;1.00;;;0.70;;
22531;SDS011;11432;46.924;7.114;2024-01-15T05:49:56;1.00;;;0.52;;
22531;SDS011;11432;46.924;7.114;2024-01-15T05:52:22;1.25;;;0.70;;
22531;SDS011;11432;46.924;7.114;2024-01-15T05:54:48;1.13;;;0.70;;
22531;SDS011;11432;46.924;7.114;2024-01-15T05:57:14;1.73;;;0.70;;
22531;SDS011;11432;46.924;7.114;2024-01-15T05:59:40;1.20;;;0.70;;
22531;SDS011;11432;46.924;7.114;2024-01-15T06:02:06;1.40;;;0.82;;
22531;SDS011;11432;46.924;7.114;2024-01-15T06:04:31;1.33;;;0.60;;
22531;SDS011;11432;46.924;7.114;2024-01-15T06:06:57;0.77;;;0.52;;
22531;SDS011;11432;46.924;7.114;2024-01-15T06:09:22;1.83;;;0.90;;
22531;SDS011;11432;46.924;7.114;2024-01-15T06:11:48;1.88;;;0.70;;
22531;SDS011;11432;46.924;7.114;2024-01-15T06:14:14;1.77;;;0.80;;
22531;SDS011;11432;46.924;7.114;2024-01-15T06:16:39;5.63;;;1.15;;
22531;SDS011;11432;46.924;7.114;2024-01-15T06:19:05;1.52;;;1.10;;
22531;SDS011;11432;46.924;7.114;2024-01-15T06:21:30;1.02;;;0.70;;
22531;SDS011;11432;46.924;7.114;2024-01-15T06:23:56;1.65;;;0.88;;
22531;SDS011;11432;46.924;7.114;2024-01-15T06:26:22;1.20;;;0.75;;
22531;SDS011;11432;46.924;7.114;2024-01-15T06:28:48;0.57;;;0.43;;
22531;SDS011;11432;46.924;7.114;2024-01-15T06:31:13;1.35;;;0.77;;
22531;SDS011;11432;46.924;7.114;2024-01-15T06:33:39;1.70;;;0.82;;
22531;SDS011;11432;46.924;7.114;2024-01-15T06:36:05;1.27;;;0.68;;
22531;SDS011;11432;46.924;7.114;2024-01-15T06:38:31;2.15;;;0.70;;
22531;SDS011;11432;46.924;7.114;2024-01-15T06:40:57;1.40;;;0.70;;
22531;SDS011;11432;46.924;7.114;2024-01-15T06:43:22;1.38;;;0.88;;
22531;SDS011;11432;46.924;7.114;2024-01-15T06:45:48;2.33;;;0.98;;
22531;SDS011;11432;46.924;7.114;2024-01-15T06:48:13;1.63;;;0.80;;
22531;SDS011;11432;46.924;7.114;2024-01-15T06:50:41;2.20;;;0.80;;
22531;SDS011;11432;46.924;7.114;2024-01-15T06:53:10;2.33;;;0.60;;
22531;SDS011;11432;46.924;7.114;2024-01-15T06:55:36;1.40;;;0.80;;
22531;SDS011;11432;46.924;7.114;2024-01-15T06:58:02;2.92;;;1.00;;
22531;SDS011;11432;46.924;7.114;2024-01-15T07:00:28;3.47;;;0.90;;
22531;SDS011;11432;46.924;7.114;2024-01-15T07:02:54;3.72;;;1.00;;
22531;SDS011;11432;46.924;7.114;2024-01-15T07:05:23;1.15;;;0.70;;
22531;SDS011;11432;46.924;7.114;2024-01-15T07:07:49;1.45;;;0.90;;
22531;SDS011;11432;46.924;7.114;2024-01-15T07:10:15;1.92;;;0.90;;
22531;SDS011;11432;46.924;7.114;2024-01-15T07:12:43;3.15;;;1.00;;
22531;SDS011;11432;46.924;7.114;2024-01-15T07:15:10;1.38;;;0.80;;
22531;SDS011;11432;46.924;7.114;2024-01-15T07:17:35;1.92;;;0.85;;
22531;SDS011;11432;46.924;7.114;2024-01-15T07:20:04;1.20;;;0.70;;
22531;SDS011;11432;46.924;7.114;2024-01-15T07:22:32;2.20;;;0.80;;
22531;SDS011;11432;46.924;7.114;2024-01-15T07:24:58;2.47;;;1.05;;
22531;SDS011;11432;46.924;7.114;2024-01-15T07:27:24;1.52;;;0.80;;
22531;SDS011;11432;46.924;7.114;2024-01-15T07:29:49;3.40;;;0.90;;
22531;SDS011;11432;46.924;7.114;2024-01-15T07:32:15;1.52;;;0.95;;
22531;SDS011;11432;46.924;7.114;2024-01-15T07:34:41;2.55;;;0.98;;
22531;SDS011;11432;46.924;7.114;2024-01-15T07:37:06;1.55;;;0.80;;
22531;SDS011;11432;46.924;7.114;2024-01-15T07:39:32;2.45;;;0.90;;
22531;SDS011;11432;46.924;7.114;2024-01-15T07:41:59;2.17;;;0.90;;
22531;SDS011;11432;46.924;7.114;2024-01-15T07:44:25;1.23;;;0.63;;
22531;SDS011;11432;46.924;7.114;2024-01-15T07:46:51;2.05;;;0.93;;
22531;SDS011;11432;46.924;7.114;2024-01-15T07:49:16;1.40;;;1.00;;
22531;SDS011;11432;46.924;7.114;2024-01-15T07:51:42;1.70;;;0.90;;
22531;SDS011;11432;46.924;7.114;2024-01-15T07:54:11;2.28;;;1.10;;
22531;SDS011;11432;46.924;7.114;2024-01-15T07:59:26;1.73;;;0.82;;
22531;SDS011;11432;46.924;7.114;2024-01-15T08:01:52;2.30;;;1.10;;
22531;SDS011;11432;46.924;7.114;2024-01-15T08:04:18;1.75;;;1.00;;
22531;SDS011;11432;46.924;7.114;2024-01-15T08:06:44;4.40;;;1.13;;
22531;SDS011;11432;46.924;7.114;2024-01-15T08:09:10;2.33;;;1.10;;
22531;SDS011;11432;46.924;7.114;2024-01-15T08:11:38;4.93;;;1.23;;
22531;SDS011;11432;46.924;7.114;2024-01-15T08:14:05;2.40;;;1.02;;
22531;SDS011;11432;46.924;7.114;2024-01-15T08:16:31;2.45;;;1.23;;
22531;SDS011;11432;46.924;7.114;2024-01-15T08:18:56;2.55;;;1.40;;
22531;SDS011;11432;46.924;7.114;2024-01-15T08:21:22;1.73;;;0.98;;
22531;SDS011;11432;46.924;7.114;2024-01-15T08:23:48;3.05;;;1.58;;
22531;SDS011;11432;46.924;7.114;2024-01-15T08:26:13;2.78;;;1.45;;
22531;SDS011;11432;46.924;7.114;2024-01-15T08:28:39;3.00;;;1.63;;
22531;SDS011;11432;46.924;7.114;2024-01-15T08:31:04;2.00;;;1.25;;
22531;SDS011;11432;46.924;7.114;2024-01-15T08:33:30;2.50;;;1.48;;
22531;SDS011;11432;46.924;7.114;2024-01-15T08:35:55;3.75;;;1.48;;
22531;SDS011;11432;46.924;7.114;2024-01-15T08:38:21;2.70;;;1.70;;
22531;SDS011;11432;46.924;7.114;2024-01-15T08:40:47;3.13;;;1.77;;
22531;SDS011;11432;46.924;7.114;2024-01-15T08:43:14;2.15;;;1.42;;
22531;SDS011;11432;46.924;7.114;2024-01-15T08:45:40;3.63;;;1.85;;
22531;SDS011;11432;46.924;7.114;2024-01-15T08:48:05;3.50;;;1.70;;
22531;SDS011;11432;46.924;7.114;2024-01-15T08:50:32;4.55;;;1.67;;
22531;SDS011;11432;46.924;7.114;2024-01-15T08:52:57;3.28;;;1.55;;
22531;SDS011;11432;46.924;7.114;2024-01-15T08:55:24;3.78;;;1.65;;
22531;SDS011;11432;46.924;7.114;2024-01-15T08:57:49;5.75;;;3.22;;
22531;SDS011;11432;46.924;7.114;2024-01-15T09:00:15;2.85;;;1.52;;
22531;SDS011;11432;46.924;7.114;2024-01-15T09:02:41;2.72;;;1.73;;
22531;SDS011;11432;46.924;7.114;2024-01-15T09:05:07;4.75;;;1.80;;
22531;SDS011;11432;46.924;7.114;2024-01-15T09:07:33;3.10;;;1.77;;
22531;SDS011;11432;46.924;7.114;2024-01-15T09:09:58;3.92;;;1.83;;
22531;SDS011;11432;46.924;7.114;2024-01-15T09:12:25;3.65;;;1.60;;
22531;SDS011;11432;46.924;7.114;2024-01-15T09:14:51;3.70;;;1.70;;
22531;SDS011;11432;46.924;7.114;2024-01-15T09:17:17;3.53;;;1.73;;
22531;SDS011;11432;46.924;7.114;2024-01-15T09:19:43;2.85;;;1.70;;
22531;SDS011;11432;46.924;7.114;2024-01-15T09:22:09;2.97;;;1.50;;
22531;SDS011;11432;46.924;7.114;2024-01-15T09:24:35;2.55;;;1.65;;
22531;SDS011;11432;46.924;7.114;2024-01-15T09:27:00;4.53;;;1.80;;
22531;SDS011;11432;46.924;7.114;2024-01-15T09:29:27;2.78;;;1.73;;
22531;SDS011;11432;46.924;7.114;2024-01-15T09:31:53;2.58;;;1.50;;
22531;SDS011;11432;46.924;7.114;2024-01-15T09:34:18;3.38;;;1.80;;
22531;SDS011;11432;46.924;7.114;2024-01-15T09:36:44;3.55;;;1.80;;
22531;SDS011;11432;46.924;7.114;2024-01-15T09:39:09;4.15;;;1.95;;
22531;SDS011;11432;46.924;7.114;2024-01-15T09:41:36;3.38;;;2.17;;
22531;SDS011;11432;46.924;7.114;2024-01-15T09:44:03;2.92;;;1.70;;
22531;SDS011;11432;46.924;7.114;2024-01-15T09:46:29;3.25;;;2.22;;
22531;SDS011;11432;46.924;7.114;2024-01-15T09:48:57;3.83;;;2.05;;
22531;SDS011;11432;46.924;7.114;2024-01-15T09:51:23;3.40;;;1.88;;
22531;SDS011;11432;46.924;7.114;2024-01-15T09:53:49;3.88;;;2.15;;
22531;SDS011;11432;46.924;7.114;2024-01-15T09:56:15;5.35;;;2.60;;
22531;SDS011;11432;46.924;7.114;2024-01-15T09:58:41;4.25;;;2.53;;
22531;SDS011;11432;46.924;7.114;2024-01-15T10:01:07;4.55;;;2.47;;
22531;SDS011;11432;46.924;7.114;2024-01-15T10:03:34;5.40;;;2.10;;
22531;SDS011;11432;46.924;7.114;2024-01-15T10:05:59;4.32;;;2.42;;
22531;SDS011;11432;46.924;7.114;2024-01-15T10:08:27;3.55;;;2.42;;
22531;SDS011;11432;46.924;7.114;2024-01-15T10:10:53;4.88;;;2.30;;
22531;SDS011;11432;46.924;7.114;2024-01-15T10:13:19;4.68;;;2.40;;
22531;SDS011;11432;46.924;7.114;2024-01-15T10:15:46;3.97;;;2.47;;
22531;SDS011;11432;46.924;7.114;2024-01-15T10:18:15;4.95;;;2.75;;
22531;SDS011;11432;46.924;7.114;2024-01-15T10:20:40;4.15;;;2.58;;
22531;SDS011;11432;46.924;7.114;2024-01-15T10:23:07;4.80;;;2.72;;
22531;SDS011;11432;46.924;7.114;2024-01-15T10:25:34;3.38;;;2.33;;
22531;SDS011;11432;46.924;7.114;2024-01-15T10:28:01;4.78;;;3.00;;
22531;SDS011;11432;46.924;7.114;2024-01-15T10:30:28;4.20;;;2.55;;
22531;SDS011;11432;46.924;7.114;2024-01-15T10:32:58;6.10;;;3.15;;
22531;SDS011;11432;46.924;7.114;2024-01-15T10:35:32;4.20;;;2.50;;
22531;SDS011;11432;46.924;7.114;2024-01-15T10:38:02;4.13;;;2.28;;
22531;SDS011;11432;46.924;7.114;2024-01-15T10:40:28;4.15;;;2.40;;
22531;SDS011;11432;46.924;7.114;2024-01-15T10:42:54;3.08;;;2.25;;
22531;SDS011;11432;46.924;7.114;2024-01-15T10:45:20;2.28;;;1.70;;
22531;SDS011;11432;46.924;7.114;2024-01-15T10:47:46;4.43;;;2.30;;
22531;SDS011;11432;46.924;7.114;2024-01-15T10:50:12;3.13;;;1.90;;
22531;SDS011;11432;46.924;7.114;2024-01-15T10:52:38;3.65;;;2.05;;
22531;SDS011;11432;46.924;7.114;2024-01-15T10:55:05;5.30;;;3.00;;
22531;SDS011;11432;46.924;7.114;2024-01-15T10:57:34;5.30;;;3.43;;
22531;SDS011;11432;46.924;7.114;2024-01-15T11:00:00;3.80;;;2.42;;
22531;SDS011;11432;46.924;7.114;2024-01-15T11:02:30;3.90;;;2.63;;
22531;SDS011;11432;46.924;7.114;2024-01-15T11:04:58;4.30;;;2.47;;
22531;SDS011;11432;46.924;7.114;2024-01-15T11:07:24;4.40;;;2.80;;
22531;SDS011;11432;46.924;7.114;2024-01-15T11:09:50;4.75;;;2.85;;
22531;SDS011;11432;46.924;7.114;2024-01-15T11:12:16;5.57;;;2.80;;
22531;SDS011;11432;46.924;7.114;2024-01-15T11:14:48;4.60;;;2.67;;
22531;SDS011;11432;46.924;7.114;2024-01-15T11:17:15;3.22;;;2.10;;
22531;SDS011;11432;46.924;7.114;2024-01-15T11:22:53;4.45;;;2.47;;
22531;SDS011;11432;46.924;7.114;2024-01-15T11:25:13;3.28;;;2.25;;
22531;SDS011;11432;46.924;7.114;2024-01-15T11:27:46;4.05;;;2.65;;
22531;SDS011;11432;46.924;7.114;2024-01-15T11:30:13;3.85;;;2.38;;
22531;SDS011;11432;46.924;7.114;2024-01-15T11:32:39;5.47;;;2.78;;
22531;SDS011;11432;46.924;7.114;2024-01-15T11:35:11;5.43;;;2.90;;
22531;SDS011;11432;46.924;7.114;2024-01-15T11:38:00;3.92;;;2.70;;
22531;SDS011;11432;46.924;7.114;2024-01-15T11:42:58;5.03;;;2.55;;
22531;SDS011;11432;46.924;7.114;2024-01-15T11:45:23;3.72;;;2.50;;
22531;SDS011;11432;46.924;7.114;2024-01-15T11:50:30;2.35;;;1.63;;
22531;SDS011;11432;46.924;7.114;2024-01-15T11:52:59;3.33;;;1.80;;
22531;SDS011;11432;46.924;7.114;2024-01-15T11:55:27;3.97;;;2.50;;
22531;SDS011;11432;46.924;7.114;2024-01-15T11:58:10;2.80;;;1.85;;
22531;SDS011;11432;46.924;7.114;2024-01-15T12:00:39;3.22;;;2.08;;
22531;SDS011;11432;46.924;7.114;2024-01-15T12:03:05;3.80;;;2.30;;
22531;SDS011;11432;46.924;7.114;2024-01-15T12:05:31;5.72;;;2.65;;
22531;SDS011;11432;46.924;7.114;2024-01-15T12:07:57;4.95;;;2.85;;
22531;SDS011;11432;46.924;7.114;2024-01-15T12:10:22;4.28;;;2.97;;
22531;SDS011;11432;46.924;7.114;2024-01-15T12:15:17;4.47;;;2.85;;
22531;SDS011;11432;46.924;7.114;2024-01-15T12:17:42;5.35;;;3.08;;
22531;SDS011;11432;46.924;7.114;2024-01-15T12:20:09;3.33;;;2.20;;
22531;SDS011;11432;46.924;7.114;2024-01-15T12:22:35;3.83;;;2.75;;
22531;SDS011;11432;46.924;7.114;2024-01-15T12:25:01;7.75;;;2.67;;
22531;SDS011;11432;46.924;7.114;2024-01-15T12:27:27;5.88;;;2.63;;
22531;SDS011;11432;46.924;7.114;2024-01-15T12:29:53;3.13;;;2.28;;
22531;SDS011;11432;46.924;7.114;2024-01-15T12:32:18;2.97;;;2.10;;
22531;SDS011;11432;46.924;7.114;2024-01-15T12:34:45;3.78;;;1.92;;
22531;SDS011;11432;46.924;7.114;2024-01-15T12:37:11;3.42;;;2.17;;
22531;SDS011;11432;46.924;7.114;2024-01-15T12:39:37;2.92;;;1.83;;
22531;SDS011;11432;46.924;7.114;2024-01-15T12:42:03;2.95;;;1.75;;
22531;SDS011;11432;46.924;7.114;2024-01-15T12:44:29;3.50;;;2.13;;
22531;SDS011;11432;46.924;7.114;2024-01-15T12:46:55;3.47;;;2.03;;
22531;SDS011;11432;46.924;7.114;2024-01-15T12:49:23;4.75;;;2.75;;
22531;SDS011;11432;46.924;7.114;2024-01-15T12:51:52;3.22;;;1.98;;
22531;SDS011;11432;46.924;7.114;2024-01-15T12:54:18;3.33;;;2.60;;
22531;SDS011;11432;46.924;7.114;2024-01-15T12:56:44;3.53;;;2.42;;
22531;SDS011;11432;46.924;7.114;2024-01-15T12:59:10;3.97;;;2.25;;
22531;SDS011;11432;46.924;7.114;2024-01-15T13:01:35;3.25;;;2.00;;
22531;SDS011;11432;46.924;7.114;2024-01-15T13:04:01;3.97;;;2.20;;
22531;SDS011;11432;46.924;7.114;2024-01-15T13:06:28;3.83;;;2.00;;
22531;SDS011;11432;46.924;7.114;2024-01-15T13:08:53;2.72;;;1.70;;
22531;SDS011;11432;46.924;7.114;2024-01-15T13:11:19;2.70;;;1.83;;
22531;SDS011;11432;46.924;7.114;2024-01-15T13:13:45;2.25;;;1.25;;
22531;SDS011;11432;46.924;7.114;2024-01-15T13:16:10;2.35;;;1.17;;
22531;SDS011;11432;46.924;7.114;2024-01-15T13:18:36;2.33;;;1.92;;
22531;SDS011;11432;46.924;7.114;2024-01-15T13:21:02;2.33;;;1.30;;
22531;SDS011;11432;46.924;7.114;2024-01-15T13:23:27;2.50;;;1.20;;
22531;SDS011;11432;46.924;7.114;2024-01-15T13:25:53;2.45;;;1.20;;
22531;SDS011;11432;46.924;7.114;2024-01-15T13:28:19;2.08;;;1.10;;
22531;SDS011;11432;46.924;7.114;2024-01-15T13:30:46;3.05;;;1.30;;
22531;SDS011;11432;46.924;7.114;2024-01-15T13:33:12;1.80;;;1.27;;
22531;SDS011;11432;46.924;7.114;2024-01-15T13:35:38;1.73;;;1.02;;
22531;SDS011;11432;46.924;7.114;2024-01-15T13:38:04;2.08;;;1.30;;
22531;SDS011;11432;46.924;7.114;2024-01-15T13:40:29;4.53;;;1.42;;
22531;SDS011;11432;46.924;7.114;2024-01-15T13:42:55;1.42;;;0.70;;
22531;SDS011;11432;46.924;7.114;2024-01-15T13:45:20;1.88;;;1.10;;
22531;SDS011;11432;46.924;7.114;2024-01-15T13:47:46;1.33;;;0.80;;
22531;SDS011;11432;46.924;7.114;2024-01-15T13:50:12;3.83;;;0.93;;
22531;SDS011;11432;46.924;7.114;2024-01-15T13:52:37;1.42;;;0.80;;
22531;SDS011;11432;46.924;7.114;2024-01-15T13:55:03;3.13;;;1.20;;
22531;SDS011;11432;46.924;7.114;2024-01-15T13:57:29;1.40;;;0.80;;
22531;SDS011;11432;46.924;7.114;2024-01-15T13:59:54;2.47;;;0.88;;
22531;SDS011;11432;46.924;7.114;2024-01-15T14:02:20;2.78;;;0.90;;
22531;SDS011;11432;46.924;7.114;2024-01-15T14:04:46;1.13;;;0.68;;
22531;SDS011;11432;46.924;7.114;2024-01-15T14:07:12;1.00;;;0.57;;
22531;SDS011;11432;46.924;7.114;2024-01-15T14:09:37;1.60;;;0.73;;
22531;SDS011;11432;46.924;7.114;2024-01-15T14:12:03;0.75;;;0.40;;
22531;SDS011;11432;46.924;7.114;2024-01-15T14:14:29;3.40;;;0.88;;
22531;SDS011;11432;46.924;7.114;2024-01-15T14:16:55;2.75;;;0.80;;
22531;SDS011;11432;46.924;7.114;2024-01-15T14:19:20;1.10;;;0.50;;
22531;SDS011;11432;46.924;7.114;2024-01-15T14:21:46;1.38;;;0.60;;
22531;SDS011;11432;46.924;7.114;2024-01-15T14:24:11;1.50;;;0.75;;
22531;SDS011;11432;46.924;7.114;2024-01-15T14:26:37;2.58;;;0.77;;
22531;SDS011;11432;46.924;7.114;2024-01-15T14:29:03;1.70;;;0.80;;
22531;SDS011;11432;46.924;7.114;2024-01-15T14:31:28;1.67;;;0.55;;
22531;SDS011;11432;46.924;7.114;2024-01-15T14:33:54;1.65;;;0.70;;
22531;SDS011;11432;46.924;7.114;2024-01-15T14:36:20;0.70;;;0.50;;
22531;SDS011;11432;46.924;7.114;2024-01-15T14:38:46;2.45;;;0.80;;
22531;SDS011;11432;46.924;7.114;2024-01-15T14:41:11;0.77;;;0.40;;
22531;SDS011;11432;46.924;7.114;2024-01-15T14:43:37;1.13;;;0.55;;
22531;SDS011;11432;46.924;7.114;2024-01-15T14:46:02;0.95;;;0.40;;
22531;SDS011;11432;46.924;7.114;2024-01-15T14:48:28;4.60;;;0.70;;
22531;SDS011;11432;46.924;7.114;2024-01-15T14:50:54;1.17;;;0.60;;
22531;SDS011;11432;46.924;7.114;2024-01-15T14:53:20;0.93;;;0.57;;
22531;SDS011;11432;46.924;7.114;2024-01-15T14:55:46;1.20;;;0.68;;